Time;durP1;ratioP1;P1;durP2;ratioP2;P2;SDS_P1;SDS_P2;PMS_P1;PMS_P2;Temp;Humidity;BMP_temperature;BMP_pressure;BME280_temperature;BME280_humidity;BME280_pressure;Samples;Min_cycle;Max_cycle;Signal;HPM_P1;HPM_P2
2022/09/29 00:02:00;;;;;;;0.10;0.10;;;;;;;;;;5028641;28;20504;-79
2022/09/29 00:04:26;;;;;;;0.00;0.00;;;;;;;;;;5040961;28;20436;-77
2022/09/29 00:06:52;;;;;;;0.10;0.10;;;;;;;;;;5045033;28;20524;-78
2022/09/29 00:09:18;;;;;;;0.10;0.10;;;;;;;;;;5065822;28;20452;-79
2022/09/29 00:11:45;;;;;;;0.10;0.10;;;;;;;;;;5053837;28;20428;-78
2022/09/29 00:14:11;;;;;;;0.10;0.10;;;;;;;;;;5048985;28;20421;-79
2022/09/29 00:16:37;;;;;;;0.10;0.10;;;;;;;;;;5052308;28;20422;-77
2022/09/29 00:19:03;;;;;;;0.10;0.10;;;;;;;;;;5046553;28;20420;-79
2022/09/29 00:21:30;;;;;;;0.10;0.10;;;;;;;;;;5031153;28;20444;-79
2022/09/29 00:23:56;;;;;;;0.00;0.00;;;;;;;;;;5057846;28;20502;-78
2022/09/29 00:26:23;;;;;;;0.10;0.10;;;;;;;;;;5042916;28;20446;-79
2022/09/29 00:28:59;;;;;;;0.10;0.10;;;;;;;;;;5057929;28;20466;-79
2022/09/29 00:31:27;;;;;;;0.10;0.10;;;;;;;;;;5034801;28;20449;-80
2022/09/29 00:33:53;;;;;;;0.10;0.10;;;;;;;;;;5042606;28;20428;-78
2022/09/29 00:36:20;;;;;;;0.10;0.10;;;;;;;;;;5036008;28;20468;-79
2022/09/29 00:38:47;;;;;;;0.13;0.13;;;;;;;;;;5043353;28;20436;-80
2022/09/29 00:41:16;;;;;;;0.00;0.00;;;;;;;;;;5045935;28;20435;-79
2022/09/29 00:43:56;;;;;;;0.10;0.10;;;;;;;;;;5028155;28;20516;-79
2022/09/29 00:46:28;;;;;;;0.10;0.10;;;;;;;;;;5050711;28;20425;-80
2022/09/29 00:48:56;;;;;;;0.10;0.10;;;;;;;;;;5062614;28;20522;-80
2022/09/29 00:51:23;;;;;;;0.00;0.00;;;;;;;;;;5008555;28;20435;-81
2022/09/29 00:53:49;;;;;;;0.10;0.10;;;;;;;;;;5031138;28;20782;-79
2022/09/29 00:56:16;;;;;;;0.10;0.10;;;;;;;;;;5042135;28;20502;-79
2022/09/29 00:58:54;;;;;;;0.10;0.10;;;;;;;;;;5050115;28;20436;-78
2022/09/29 01:01:22;;;;;;;0.08;0.08;;;;;;;;;;5046616;28;20479;-79
2022/09/29 01:03:49;;;;;;;0.10;0.10;;;;;;;;;;5040914;28;20430;-79
2022/09/29 01:06:21;;;;;;;0.10;0.10;;;;;;;;;;5045965;28;20424;-80
2022/09/29 01:08:47;;;;;;;0.10;0.10;;;;;;;;;;5031295;28;20514;-80
2022/09/29 01:11:13;;;;;;;0.10;0.10;;;;;;;;;;5046983;28;20774;-79
2022/09/29 01:13:40;;;;;;;0.10;0.10;;;;;;;;;;5052336;28;20511;-80
2022/09/29 01:16:07;;;;;;;0.10;0.10;;;;;;;;;;5039232;28;20981;-79
2022/09/29 01:18:33;;;;;;;0.10;0.10;;;;;;;;;;5046699;28;20923;-80
2022/09/29 01:21:05;;;;;;;0.10;0.10;;;;;;;;;;5046764;28;20519;-80
2022/09/29 01:23:34;;;;;;;0.10;0.10;;;;;;;;;;5035478;28;20978;-79
2022/09/29 01:26:27;;;;;;;0.10;0.10;;;;;;;;;;5037535;28;20474;-81
2022/09/29 01:28:56;;;;;;;0.30;0.30;;;;;;;;;;5037195;28;20505;-80
2022/09/29 01:31:28;;;;;;;0.10;0.10;;;;;;;;;;5057899;28;20484;-81
2022/09/29 01:34:14;;;;;;;0.10;0.10;;;;;;;;;;5058220;28;20548;-80
2022/09/29 01:36:57;;;;;;;0.10;0.10;;;;;;;;;;5043308;28;20989;-80
2022/09/29 01:39:26;;;;;;;0.05;0.05;;;;;;;;;;5021133;28;20445;-80
2022/09/29 01:42:01;;;;;;;0.30;0.30;;;;;;;;;;5045926;28;20909;-79
2022/09/29 01:44:27;;;;;;;0.00;0.00;;;;;;;;;;5048831;28;20508;-79
2022/09/29 01:46:57;;;;;;;0.10;0.10;;;;;;;;;;5062637;28;21038;-80
2022/09/29 01:49:27;;;;;;;0.10;0.10;;;;;;;;;;5047727;28;20475;-80
2022/09/29 01:51:56;;;;;;;0.10;0.10;;;;;;;;;;5010711;28;20509;-80
2022/09/29 01:54:28;;;;;;;0.00;0.00;;;;;;;;;;5049418;28;20968;-80
2022/09/29 01:57:01;;;;;;;0.00;0.00;;;;;;;;;;5042665;28;20535;-80
2022/09/29 01:59:34;;;;;;;0.10;0.10;;;;;;;;;;5050270;28;20464;-79
2022/09/29 02:02:02;;;;;;;0.03;0.03;;;;;;;;;;5049188;28;20490;-80
2022/09/29 02:04:33;;;;;;;0.10;0.10;;;;;;;;;;5060750;28;20429;-80
2022/09/29 02:07:11;;;;;;;0.05;0.05;;;;;;;;;;5030375;28;20956;-81
2022/09/29 02:09:43;;;;;;;0.00;0.00;;;;;;;;;;5049255;28;20458;-80
2022/09/29 02:12:12;;;;;;;0.00;0.00;;;;;;;;;;5044735;28;20508;-80
2022/09/29 02:14:43;;;;;;;0.03;0.03;;;;;;;;;;5060566;28;20454;-81
2022/09/29 02:17:18;;;;;;;1.20;0.20;;;;;;;;;;5033327;28;20724;-80
2022/09/29 02:19:44;;;;;;;0.10;0.10;;;;;;;;;;5050359;28;20481;-81
2022/09/29 02:22:11;;;;;;;0.10;0.10;;;;;;;;;;5058810;28;20766;-81
2022/09/29 02:24:37;;;;;;;0.10;0.10;;;;;;;;;;5038795;28;20469;-81
2022/09/29 02:27:04;;;;;;;0.40;0.40;;;;;;;;;;5026137;28;20515;-81
2022/09/29 02:29:31;;;;;;;0.30;0.30;;;;;;;;;;5049137;28;20425;-80
2022/09/29 02:32:00;;;;;;;0.00;0.00;;;;;;;;;;5057244;28;20463;-81
2022/09/29 02:34:27;;;;;;;0.10;0.10;;;;;;;;;;5045199;28;20506;-81
2022/09/29 02:37:09;;;;;;;0.10;0.10;;;;;;;;;;5019754;28;20433;-79
2022/09/29 02:39:44;;;;;;;0.00;0.00;;;;;;;;;;5047318;28;20445;-81
2022/09/29 02:42:29;;;;;;;0.10;0.10;;;;;;;;;;5034785;28;20535;-81
2022/09/29 02:45:07;;;;;;;0.00;0.00;;;;;;;;;;5047819;28;20534;-80
2022/09/29 02:47:33;;;;;;;0.10;0.10;;;;;;;;;;5063424;28;20556;-80
2022/09/29 02:50:25;;;;;;;0.10;0.10;;;;;;;;;;5061432;28;20439;-81
2022/09/29 02:52:51;;;;;;;0.00;0.00;;;;;;;;;;5043798;28;20683;-79
2022/09/29 02:55:19;;;;;;;0.10;0.10;;;;;;;;;;5032402;28;20427;-80
2022/09/29 02:58:04;;;;;;;0.20;0.20;;;;;;;;;;5040213;28;20479;-79
2022/09/29 03:00:31;;;;;;;0.10;0.10;;;;;;;;;;5055993;28;20595;-80
2022/09/29 03:02:57;;;;;;;0.08;0.08;;;;;;;;;;5062413;28;20419;-79
2022/09/29 03:05:23;;;;;;;0.10;0.10;;;;;;;;;;5050920;28;20512;-80
2022/09/29 03:07:49;;;;;;;0.10;0.10;;;;;;;;;;5034923;28;20428;-80
2022/09/29 03:10:16;;;;;;;0.20;0.20;;;;;;;;;;5046571;28;20910;-80
2022/09/29 03:12:42;;;;;;;0.10;0.10;;;;;;;;;;5027000;28;20979;-79
2022/09/29 03:15:11;;;;;;;0.20;0.20;;;;;;;;;;5051184;28;20482;-79
2022/09/29 03:17:37;;;;;;;0.00;0.00;;;;;;;;;;5052935;28;20422;-80
2022/09/29 03:20:04;;;;;;;0.10;0.10;;;;;;;;;;5061300;28;20411;-80
2022/09/29 03:22:30;;;;;;;0.10;0.10;;;;;;;;;;5052517;28;20471;-80
2022/09/29 03:24:56;;;;;;;0.10;0.10;;;;;;;;;;5040067;28;20428;-78
2022/09/29 03:27:22;;;;;;;0.20;0.20;;;;;;;;;;5056511;28;20430;-80
2022/09/29 03:29:49;;;;;;;0.10;0.10;;;;;;;;;;5053654;28;20425;-81
2022/09/29 03:32:16;;;;;;;0.10;0.10;;;;;;;;;;5055778;28;20425;-80
2022/09/29 03:34:42;;;;;;;0.10;0.10;;;;;;;;;;5029673;28;21120;-80
2022/09/29 03:37:08;;;;;;;0.10;0.10;;;;;;;;;;5060486;28;20458;-81
2022/09/29 03:39:34;;;;;;;0.10;0.10;;;;;;;;;;5049307;28;20420;-80
2022/09/29 03:42:00;;;;;;;0.00;0.00;;;;;;;;;;5043936;28;20418;-79
2022/09/29 03:44:26;;;;;;;0.10;0.10;;;;;;;;;;5035356;28;20513;-79
2022/09/29 03:46:52;;;;;;;1.00;0.50;;;;;;;;;;5061744;28;20503;-80
2022/09/29 03:49:18;;;;;;;0.10;0.10;;;;;;;;;;5061304;28;21176;-80
2022/09/29 03:51:45;;;;;;;0.10;0.10;;;;;;;;;;5040253;28;20949;-80
2022/09/29 03:54:11;;;;;;;0.10;0.10;;;;;;;;;;5048238;28;20429;-80
2022/09/29 03:56:37;;;;;;;0.40;0.30;;;;;;;;;;5042527;28;20491;-79
2022/09/29 03:59:09;;;;;;;0.10;0.10;;;;;;;;;;5052901;28;21145;-80
2022/09/29 04:01:37;;;;;;;0.10;0.10;;;;;;;;;;5063393;28;20497;-80
2022/09/29 04:04:03;;;;;;;0.10;0.10;;;;;;;;;;5033082;28;20424;-79
2022/09/29 04:06:29;;;;;;;0.00;0.00;;;;;;;;;;5037992;28;20431;-80
2022/09/29 04:08:55;;;;;;;0.10;0.10;;;;;;;;;;5045957;28;20938;-80
2022/09/29 04:11:21;;;;;;;0.20;0.20;;;;;;;;;;5038884;28;21187;-80
2022/09/29 04:13:47;;;;;;;0.10;0.10;;;;;;;;;;5028974;28;20771;-80
2022/09/29 04:16:13;;;;;;;0.10;0.10;;;;;;;;;;5035600;28;20468;-80
2022/09/29 04:18:39;;;;;;;0.00;0.00;;;;;;;;;;5047797;28;20419;-80
2022/09/29 04:21:06;;;;;;;0.00;0.00;;;;;;;;;;5045590;28;20473;-83
2022/09/29 04:23:32;;;;;;;0.10;0.10;;;;;;;;;;5058464;28;20437;-80
2022/09/29 04:26:00;;;;;;;0.10;0.10;;;;;;;;;;5041032;28;20440;-79
2022/09/29 04:28:27;;;;;;;0.10;0.10;;;;;;;;;;5053883;28;20430;-82
2022/09/29 04:30:53;;;;;;;0.00;0.00;;;;;;;;;;5033062;28;20454;-85
2022/09/29 04:33:19;;;;;;;0.00;0.00;;;;;;;;;;5061950;28;20432;-83
2022/09/29 04:35:45;;;;;;;0.10;0.10;;;;;;;;;;5037208;28;20932;-83
2022/09/29 04:38:12;;;;;;;0.10;0.10;;;;;;;;;;5041496;28;20480;-82
2022/09/29 04:40:38;;;;;;;0.10;0.10;;;;;;;;;;5043005;28;20977;-82
2022/09/29 04:43:04;;;;;;;0.60;0.50;;;;;;;;;;5017501;28;20989;-81
2022/09/29 04:45:30;;;;;;;0.03;0.03;;;;;;;;;;5032948;28;20425;-82
2022/09/29 04:47:56;;;;;;;0.10;0.10;;;;;;;;;;5052817;28;20419;-83
2022/09/29 04:50:23;;;;;;;0.10;0.10;;;;;;;;;;5036315;28;20429;-82
2022/09/29 04:52:49;;;;;;;0.10;0.10;;;;;;;;;;5025930;28;20782;-82
2022/09/29 04:55:15;;;;;;;0.10;0.10;;;;;;;;;;5032584;28;20431;-81
2022/09/29 04:57:43;;;;;;;0.40;0.40;;;;;;;;;;5045738;28;20611;-81
2022/09/29 05:00:09;;;;;;;0.10;0.10;;;;;;;;;;5047831;28;20427;-81
2022/09/29 05:02:35;;;;;;;0.00;0.00;;;;;;;;;;5032338;28;20414;-81
2022/09/29 05:05:01;;;;;;;0.00;0.00;;;;;;;;;;5047982;28;20445;-80
2022/09/29 05:07:27;;;;;;;0.10;0.10;;;;;;;;;;5035937;28;20643;-81
2022/09/29 05:09:53;;;;;;;0.10;0.10;;;;;;;;;;5034052;28;20412;-81
2022/09/29 05:12:20;;;;;;;0.00;0.00;;;;;;;;;;5032022;28;20542;-81
2022/09/29 05:14:46;;;;;;;0.00;0.00;;;;;;;;;;5023311;28;20568;-81
2022/09/29 05:17:12;;;;;;;0.10;0.10;;;;;;;;;;5046629;28;20924;-81
2022/09/29 05:19:38;;;;;;;0.10;0.10;;;;;;;;;;5044018;28;20423;-81
2022/09/29 05:22:05;;;;;;;0.08;0.08;;;;;;;;;;5031082;28;20453;-81
2022/09/29 05:24:31;;;;;;;0.10;0.10;;;;;;;;;;5046850;28;20643;-81
2022/09/29 05:26:57;;;;;;;0.10;0.10;;;;;;;;;;5017784;28;20425;-81
2022/09/29 05:29:23;;;;;;;0.10;0.10;;;;;;;;;;5025714;28;20516;-81
2022/09/29 05:31:50;;;;;;;0.10;0.10;;;;;;;;;;5019319;28;20854;-81
2022/09/29 05:34:16;;;;;;;0.10;0.10;;;;;;;;;;5053351;28;20456;-80
2022/09/29 05:36:42;;;;;;;0.20;0.20;;;;;;;;;;5024064;28;20436;-81
2022/09/29 05:39:09;;;;;;;0.10;0.10;;;;;;;;;;5019016;28;20418;-81
2022/09/29 05:41:35;;;;;;;0.00;0.00;;;;;;;;;;5030722;28;20437;-81
2022/09/29 05:44:01;;;;;;;0.10;0.10;;;;;;;;;;5047181;28;20415;-80
2022/09/29 05:46:27;;;;;;;0.10;0.10;;;;;;;;;;5035588;28;20436;-81
2022/09/29 05:48:53;;;;;;;0.00;0.00;;;;;;;;;;5046684;28;20426;-81
2022/09/29 05:51:23;;;;;;;0.08;0.08;;;;;;;;;;5040871;28;20425;-81
2022/09/29 05:53:49;;;;;;;0.10;0.10;;;;;;;;;;5047582;28;20542;-81
2022/09/29 05:56:18;;;;;;;0.00;0.00;;;;;;;;;;5014411;28;20434;-81
2022/09/29 05:58:44;;;;;;;0.10;0.10;;;;;;;;;;5026178;28;20479;-81
2022/09/29 06:01:11;;;;;;;0.13;0.13;;;;;;;;;;5038694;28;20457;-81
2022/09/29 06:03:38;;;;;;;0.00;0.00;;;;;;;;;;5017417;28;20487;-80
2022/09/29 06:06:07;;;;;;;0.10;0.10;;;;;;;;;;5032274;28;20429;-80
2022/09/29 06:08:34;;;;;;;0.10;0.10;;;;;;;;;;5041733;28;20470;-80
2022/09/29 06:11:07;;;;;;;0.10;0.10;;;;;;;;;;5021700;28;20446;-80
2022/09/29 06:13:34;;;;;;;0.10;0.10;;;;;;;;;;5029940;28;21354;-80
2022/09/29 06:16:00;;;;;;;0.10;0.10;;;;;;;;;;5029174;28;20935;-80
2022/09/29 06:18:26;;;;;;;0.08;0.08;;;;;;;;;;5039517;28;20458;-81
2022/09/29 06:20:52;;;;;;;0.10;0.10;;;;;;;;;;5031230;28;20454;-80
2022/09/29 06:23:19;;;;;;;0.10;0.10;;;;;;;;;;5038395;28;20413;-80
2022/09/29 06:25:45;;;;;;;0.00;0.00;;;;;;;;;;5031241;28;20431;-80
2022/09/29 06:28:11;;;;;;;0.10;0.10;;;;;;;;;;5031580;28;20422;-81
2022/09/29 06:30:37;;;;;;;0.10;0.10;;;;;;;;;;5013880;28;20445;-81
2022/09/29 06:33:03;;;;;;;0.10;0.10;;;;;;;;;;5035005;28;20462;-80
2022/09/29 06:38:14;;;;;;;0.00;0.00;;;;;;;;;;5044251;28;20848;-80
2022/09/29 06:40:40;;;;;;;0.10;0.10;;;;;;;;;;5034795;28;20874;-80
2022/09/29 06:43:06;;;;;;;0.00;0.00;;;;;;;;;;5017455;28;20454;-80
2022/09/29 06:45:32;;;;;;;0.57;0.55;;;;;;;;;;5052307;28;20430;-80
2022/09/29 06:47:59;;;;;;;0.10;0.10;;;;;;;;;;5025339;28;20425;-80
2022/09/29 06:50:25;;;;;;;0.10;0.10;;;;;;;;;;5021356;28;20434;-80
2022/09/29 06:52:51;;;;;;;0.10;0.10;;;;;;;;;;5043091;28;20429;-80
2022/09/29 06:55:17;;;;;;;0.20;0.20;;;;;;;;;;5045384;28;20463;-80
2022/09/29 06:57:45;;;;;;;0.28;0.28;;;;;;;;;;5032061;28;20953;-80
2022/09/29 07:00:11;;;;;;;0.20;0.20;;;;;;;;;;5036584;28;20513;-79
2022/09/29 07:02:37;;;;;;;0.13;0.13;;;;;;;;;;5037123;28;20432;-79
2022/09/29 07:05:03;;;;;;;0.10;0.10;;;;;;;;;;5041177;28;20425;-80
2022/09/29 07:07:29;;;;;;;0.10;0.10;;;;;;;;;;5043660;28;20422;-80
2022/09/29 07:09:55;;;;;;;0.10;0.10;;;;;;;;;;5034880;28;20422;-80
2022/09/29 07:12:22;;;;;;;0.10;0.10;;;;;;;;;;5034327;28;20423;-80
2022/09/29 07:14:48;;;;;;;0.50;0.30;;;;;;;;;;5051574;28;20821;-79
2022/09/29 07:17:14;;;;;;;0.10;0.10;;;;;;;;;;5028833;28;20915;-80
2022/09/29 07:19:40;;;;;;;0.20;0.20;;;;;;;;;;5031753;28;20675;-80
2022/09/29 07:22:08;;;;;;;0.10;0.10;;;;;;;;;;5016298;28;20423;-80
2022/09/29 07:24:34;;;;;;;0.10;0.10;;;;;;;;;;5049717;28;20435;-80
2022/09/29 07:27:01;;;;;;;0.10;0.10;;;;;;;;;;5048316;28;20495;-80
2022/09/29 07:29:31;;;;;;;0.30;0.30;;;;;;;;;;5017696;28;20455;-81
2022/09/29 07:31:57;;;;;;;0.10;0.10;;;;;;;;;;5044248;28;20448;-81
2022/09/29 07:34:23;;;;;;;0.35;0.35;;;;;;;;;;5039875;28;20904;-82
2022/09/29 07:36:50;;;;;;;0.10;0.10;;;;;;;;;;5026936;28;20427;-79
2022/09/29 07:39:16;;;;;;;0.00;0.00;;;;;;;;;;5041049;28;20419;-80
2022/09/29 07:41:42;;;;;;;0.10;0.10;;;;;;;;;;5040220;28;20429;-81
2022/09/29 07:44:08;;;;;;;0.10;0.10;;;;;;;;;;5029310;28;20423;-80
2022/09/29 07:46:34;;;;;;;0.20;0.20;;;;;;;;;;5042894;28;20899;-81
2022/09/29 07:49:00;;;;;;;0.10;0.10;;;;;;;;;;5035319;28;20541;-80
2022/09/29 07:51:26;;;;;;;0.10;0.10;;;;;;;;;;5063632;28;20485;-80
2022/09/29 07:53:52;;;;;;;0.40;0.40;;;;;;;;;;5054289;28;20433;-81
2022/09/29 07:56:19;;;;;;;0.10;0.10;;;;;;;;;;5044322;28;20500;-80
2022/09/29 07:58:47;;;;;;;0.10;0.10;;;;;;;;;;5019430;28;20435;-79
2022/09/29 08:01:14;;;;;;;0.30;0.30;;;;;;;;;;5037724;28;20969;-80
2022/09/29 08:03:42;;;;;;;0.10;0.10;;;;;;;;;;5049483;28;20469;-80
2022/09/29 08:06:08;;;;;;;0.40;0.40;;;;;;;;;;5045295;28;20544;-80
2022/09/29 08:08:36;;;;;;;0.10;0.10;;;;;;;;;;5033354;28;20508;-80
2022/09/29 08:11:05;;;;;;;0.90;0.25;;;;;;;;;;5040005;28;20918;-81
2022/09/29 08:13:33;;;;;;;0.10;0.10;;;;;;;;;;5044163;28;20834;-81
2022/09/29 08:16:00;;;;;;;0.50;0.45;;;;;;;;;;5035664;28;20767;-81
2022/09/29 08:18:27;;;;;;;0.20;0.20;;;;;;;;;;5050632;28;20405;-82
2022/09/29 08:20:53;;;;;;;0.32;0.32;;;;;;;;;;5050537;28;20532;-81
2022/09/29 08:23:19;;;;;;;0.70;0.40;;;;;;;;;;5050756;28;20449;-81
2022/09/29 08:25:45;;;;;;;0.10;0.10;;;;;;;;;;5036624;28;20449;-79
2022/09/29 08:28:11;;;;;;;0.40;0.20;;;;;;;;;;5046214;28;20908;-80
2022/09/29 08:30:38;;;;;;;0.10;0.10;;;;;;;;;;5047350;28;20498;-80
2022/09/29 08:33:07;;;;;;;0.10;0.10;;;;;;;;;;5041753;28;20425;-81
2022/09/29 08:35:33;;;;;;;0.10;0.10;;;;;;;;;;5043591;28;20494;-81
2022/09/29 08:37:59;;;;;;;0.10;0.10;;;;;;;;;;5015749;28;20771;-82
2022/09/29 08:40:29;;;;;;;0.10;0.10;;;;;;;;;;5059513;28;20429;-83
2022/09/29 08:43:10;;;;;;;2.10;0.20;;;;;;;;;;5016005;28;20944;-82
2022/09/29 08:45:41;;;;;;;0.08;0.08;;;;;;;;;;5058342;28;20463;-81
2022/09/29 08:48:15;;;;;;;0.20;0.20;;;;;;;;;;5033088;28;20425;-81
2022/09/29 08:50:51;;;;;;;0.30;0.30;;;;;;;;;;5018381;28;20506;-81
2022/09/29 08:53:20;;;;;;;0.10;0.10;;;;;;;;;;5015467;28;20439;-83
2022/09/29 08:55:47;;;;;;;0.10;0.10;;;;;;;;;;5014492;28;20433;-83
2022/09/29 08:58:15;;;;;;;0.20;0.20;;;;;;;;;;5015287;28;20435;-82
2022/09/29 09:01:11;;;;;;;0.10;0.10;;;;;;;;;;5028081;28;20557;-82
2022/09/29 09:03:46;;;;;;;0.20;0.20;;;;;;;;;;4975134;28;20466;-82
2022/09/29 09:06:12;;;;;;;0.20;0.20;;;;;;;;;;5033003;28;20437;-82
2022/09/29 09:08:45;;;;;;;0.10;0.10;;;;;;;;;;5037885;28;20463;-79
2022/09/29 09:11:24;;;;;;;0.20;0.20;;;;;;;;;;5039102;28;21095;-79
2022/09/29 09:14:09;;;;;;;0.10;0.10;;;;;;;;;;5043881;28;20520;-82
2022/09/29 09:16:46;;;;;;;0.10;0.10;;;;;;;;;;5051125;28;20427;-80
2022/09/29 09:19:28;;;;;;;0.10;0.10;;;;;;;;;;5041903;28;20434;-82
2022/09/29 09:22:07;;;;;;;0.20;0.20;;;;;;;;;;5042943;28;20428;-82
2022/09/29 09:24:39;;;;;;;0.15;0.10;;;;;;;;;;5047482;28;20917;-81
2022/09/29 09:27:12;;;;;;;0.10;0.10;;;;;;;;;;5031864;28;20438;-82
2022/09/29 09:29:43;;;;;;;0.30;0.30;;;;;;;;;;5023790;28;20427;-79
2022/09/29 09:32:29;;;;;;;0.20;0.20;;;;;;;;;;5025316;28;20441;-80
2022/09/29 09:35:15;;;;;;;0.10;0.10;;;;;;;;;;5018340;28;20425;-80
2022/09/29 09:37:42;;;;;;;0.10;0.10;;;;;;;;;;5056500;28;20433;-81
2022/09/29 09:40:14;;;;;;;0.25;0.25;;;;;;;;;;5049272;28;20431;-81
2022/09/29 09:42:43;;;;;;;0.50;0.50;;;;;;;;;;5035430;28;20418;-80
2022/09/29 09:45:13;;;;;;;0.10;0.10;;;;;;;;;;5046740;28;20430;-80
2022/09/29 09:47:46;;;;;;;0.40;0.20;;;;;;;;;;5033544;28;20568;-80
2022/09/29 09:50:14;;;;;;;0.30;0.30;;;;;;;;;;5033757;28;20883;-81
2022/09/29 09:52:48;;;;;;;0.10;0.10;;;;;;;;;;5062273;28;20934;-79
2022/09/29 09:55:19;;;;;;;0.10;0.10;;;;;;;;;;5045737;28;20497;-78
2022/09/29 09:57:48;;;;;;;0.28;0.28;;;;;;;;;;5037798;28;20903;-79
2022/09/29 10:00:14;;;;;;;0.20;0.20;;;;;;;;;;5045241;28;20438;-76
2022/09/29 10:02:44;;;;;;;0.10;0.10;;;;;;;;;;5027961;28;20409;-76
2022/09/29 10:05:30;;;;;;;0.10;0.10;;;;;;;;;;5031002;28;20427;-76
2022/09/29 10:07:56;;;;;;;0.10;0.10;;;;;;;;;;5032269;28;20492;-76
2022/09/29 10:10:24;;;;;;;0.10;0.10;;;;;;;;;;5030647;28;20060;-81
2022/09/29 10:12:55;;;;;;;0.10;0.10;;;;;;;;;;5028149;28;20048;-87
2022/09/29 10:15:27;;;;;;;0.10;0.10;;;;;;;;;;5063115;28;20376;-86
2022/09/29 10:18:10;;;;;;;0.10;0.10;;;;;;;;;;5017026;28;20380;-81
2022/09/29 10:20:37;;;;;;;0.10;0.10;;;;;;;;;;5019997;28;20495;-85
2022/09/29 10:23:22;;;;;;;0.10;0.10;;;;;;;;;;5040426;28;20197;-86
2022/09/29 10:25:54;;;;;;;0.10;0.10;;;;;;;;;;5042353;28;20433;-84
2022/09/29 10:28:22;;;;;;;0.10;0.10;;;;;;;;;;5013430;28;20443;-85
2022/09/29 10:30:48;;;;;;;0.10;0.10;;;;;;;;;;5039869;28;20441;-84
2022/09/29 10:33:20;;;;;;;0.10;0.10;;;;;;;;;;5047248;28;20955;-87
2022/09/29 10:35:47;;;;;;;0.10;0.10;;;;;;;;;;5013963;28;20434;-87
2022/09/29 10:38:18;;;;;;;0.10;0.10;;;;;;;;;;5014876;28;20422;-87
2022/09/29 10:41:04;;;;;;;0.10;0.10;;;;;;;;;;5031036;28;20785;-87
2022/09/29 10:43:39;;;;;;;0.10;0.10;;;;;;;;;;5022983;28;20768;-85
2022/09/29 10:46:24;;;;;;;0.10;0.10;;;;;;;;;;5020159;28;20430;-86
2022/09/29 10:49:08;;;;;;;0.10;0.10;;;;;;;;;;5029503;28;20422;-85
2022/09/29 10:51:34;;;;;;;0.10;0.10;;;;;;;;;;5047757;28;20438;-86
2022/09/29 10:54:07;;;;;;;0.10;0.10;;;;;;;;;;5013555;28;20442;-86
2022/09/29 10:56:33;;;;;;;0.10;0.10;;;;;;;;;;5014388;28;20949;-85
2022/09/29 10:59:01;;;;;;;0.10;0.10;;;;;;;;;;5013733;28;20955;-84
2022/09/29 11:01:27;;;;;;;0.10;0.10;;;;;;;;;;5021905;28;20434;-85
2022/09/29 11:04:02;;;;;;;0.10;0.10;;;;;;;;;;5013964;28;20427;-85
2022/09/29 11:06:39;;;;;;;0.10;0.10;;;;;;;;;;5063617;28;20428;-85
2022/09/29 11:09:06;;;;;;;0.00;0.00;;;;;;;;;;5049870;28;20881;-84
2022/09/29 11:11:36;;;;;;;0.15;0.15;;;;;;;;;;5013485;28;20431;-84
2022/09/29 11:14:02;;;;;;;0.00;0.00;;;;;;;;;;5023621;28;20947;-87
2022/09/29 11:16:33;;;;;;;0.10;0.10;;;;;;;;;;5029635;28;20510;-89
2022/09/29 11:19:02;;;;;;;0.10;0.10;;;;;;;;;;5035733;28;20973;-90
2022/09/29 11:21:28;;;;;;;0.10;0.10;;;;;;;;;;5025551;28;20435;-90
2022/09/29 11:24:10;;;;;;;0.10;0.10;;;;;;;;;;5067967;28;20467;-93
2022/09/29 11:26:39;;;;;;;0.10;0.10;;;;;;;;;;5046875;28;20427;-87
2022/09/29 11:29:05;;;;;;;0.10;0.10;;;;;;;;;;5019951;28;20438;-85
2022/09/29 11:31:31;;;;;;;0.10;0.10;;;;;;;;;;5059616;28;20776;-85
2022/09/29 11:33:57;;;;;;;0.10;0.10;;;;;;;;;;5018245;28;20429;-86
2022/09/29 11:36:26;;;;;;;0.20;0.20;;;;;;;;;;5039125;28;20437;-85
2022/09/29 11:38:52;;;;;;;0.10;0.10;;;;;;;;;;5016161;28;20508;-84
2022/09/29 11:41:37;;;;;;;0.10;0.10;;;;;;;;;;5043842;28;20437;-91
2022/09/29 11:44:07;;;;;;;0.10;0.10;;;;;;;;;;5021176;28;20427;-90
2022/09/29 11:46:33;;;;;;;0.10;0.10;;;;;;;;;;5033552;28;20528;-93
2022/09/29 11:49:08;;;;;;;0.10;0.10;;;;;;;;;;5035214;28;20444;-93
2022/09/29 11:51:34;;;;;;;0.10;0.10;;;;;;;;;;5063553;28;20491;-94
2022/09/29 11:54:07;;;;;;;0.10;0.10;;;;;;;;;;5030744;28;20425;-90
2022/09/29 11:56:48;;;;;;;0.10;0.10;;;;;;;;;;5044051;28;20965;-87
2022/09/29 11:59:27;;;;;;;0.10;0.10;;;;;;;;;;5047091;28;20433;-85
2022/09/29 12:02:12;;;;;;;0.10;0.10;;;;;;;;;;5039547;28;20948;-88
2022/09/29 12:04:45;;;;;;;0.10;0.10;;;;;;;;;;5019486;28;20430;-87
2022/09/29 12:07:29;;;;;;;0.10;0.10;;;;;;;;;;5048048;28;20437;-87
2022/09/29 12:10:05;;;;;;;0.10;0.10;;;;;;;;;;5040775;28;20444;-88
2022/09/29 12:12:35;;;;;;;0.10;0.10;;;;;;;;;;5055582;28;20926;-88
2022/09/29 12:15:13;;;;;;;0.10;0.10;;;;;;;;;;5060611;28;20581;-88
2022/09/29 12:17:42;;;;;;;0.10;0.10;;;;;;;;;;5021538;28;20910;-87
2022/09/29 12:20:23;;;;;;;0.10;0.10;;;;;;;;;;5060870;28;20968;-86
2022/09/29 12:22:50;;;;;;;0.10;0.10;;;;;;;;;;5046467;28;20563;-87
2022/09/29 12:25:18;;;;;;;0.10;0.10;;;;;;;;;;5023323;28;20409;-86
2022/09/29 12:27:45;;;;;;;0.10;0.10;;;;;;;;;;5031535;28;20500;-86
2022/09/29 12:30:28;;;;;;;0.10;0.10;;;;;;;;;;5023111;28;20461;-86
2022/09/29 12:33:20;;;;;;;0.10;0.10;;;;;;;;;;5036463;28;20494;-87
2022/09/29 12:35:51;;;;;;;0.10;0.10;;;;;;;;;;4995632;28;20421;-86
2022/09/29 12:38:51;;;;;;;0.10;0.10;;;;;;;;;;5033922;28;20437;-88
2022/09/29 12:41:20;;;;;;;0.10;0.10;;;;;;;;;;5001636;28;20430;-88
2022/09/29 12:43:57;;;;;;;0.10;0.10;;;;;;;;;;5043283;28;20915;-80
2022/09/29 12:46:50;;;;;;;0.10;0.10;;;;;;;;;;5065898;28;20923;-89
2022/09/29 12:49:22;;;;;;;0.10;0.10;;;;;;;;;;5008361;28;20421;-89
2022/09/29 12:51:49;;;;;;;0.10;0.10;;;;;;;;;;5046738;28;20441;-86
2022/09/29 12:54:34;;;;;;;0.10;0.10;;;;;;;;;;5025697;28;20591;-89
2022/09/29 12:57:03;;;;;;;0.10;0.10;;;;;;;;;;5046617;28;20437;-87
2022/09/29 12:59:32;;;;;;;0.10;0.10;;;;;;;;;;5061113;28;20774;-90
2022/09/29 13:02:01;;;;;;;0.10;0.10;;;;;;;;;;5028734;28;20431;-89
2022/09/29 13:04:40;;;;;;;0.10;0.10;;;;;;;;;;5026893;28;20510;-89
2022/09/29 13:07:14;;;;;;;0.10;0.10;;;;;;;;;;5029443;28;20445;-88
2022/09/29 13:09:46;;;;;;;0.00;0.00;;;;;;;;;;5033096;28;20456;-87
2022/09/29 13:12:28;;;;;;;0.10;0.10;;;;;;;;;;5054684;28;20493;-87
2022/09/29 13:14:57;;;;;;;0.43;0.20;;;;;;;;;;5063272;28;20433;-87
2022/09/29 13:17:50;;;;;;;0.10;0.10;;;;;;;;;;5032015;28;20444;-88
2022/09/29 13:20:31;;;;;;;0.10;0.10;;;;;;;;;;5023241;28;20954;-87
2022/09/29 13:22:57;;;;;;;0.10;0.10;;;;;;;;;;5056364;28;20856;-87
2022/09/29 13:25:43;;;;;;;0.10;0.10;;;;;;;;;;5045955;28;20433;-87
2022/09/29 13:28:32;;;;;;;0.08;0.08;;;;;;;;;;5029609;28;20434;-86
2022/09/29 13:31:07;;;;;;;0.10;0.10;;;;;;;;;;5009173;28;20426;-85
2022/09/29 13:33:34;;;;;;;0.10;0.10;;;;;;;;;;5022147;28;20444;-88
2022/09/29 13:36:00;;;;;;;0.00;0.00;;;;;;;;;;5061508;28;20490;-88
2022/09/29 13:38:27;;;;;;;0.10;0.10;;;;;;;;;;5018565;28;20497;-88
2022/09/29 13:41:12;;;;;;;0.00;0.00;;;;;;;;;;5046125;28;20433;-88
2022/09/29 13:43:39;;;;;;;0.00;0.00;;;;;;;;;;5028777;28;20469;-86
2022/09/29 13:46:24;;;;;;;0.10;0.10;;;;;;;;;;5031088;28;20912;-86
2022/09/29 13:48:53;;;;;;;0.10;0.10;;;;;;;;;;5047096;28;20960;-88
2022/09/29 13:51:23;;;;;;;0.10;0.10;;;;;;;;;;5026546;28;20427;-87
2022/09/29 13:54:09;;;;;;;0.10;0.10;;;;;;;;;;5055775;28;20446;-87
2022/09/29 13:56:35;;;;;;;0.10;0.10;;;;;;;;;;5060009;28;20426;-86
2022/09/29 13:59:02;;;;;;;0.10;0.10;;;;;;;;;;5060149;28;20439;-88
2022/09/29 14:01:36;;;;;;;0.10;0.10;;;;;;;;;;5044077;28;20527;-89
2022/09/29 14:04:20;;;;;;;0.10;0.10;;;;;;;;;;5023229;28;20994;-86
2022/09/29 14:06:47;;;;;;;0.10;0.10;;;;;;;;;;5038932;28;20448;-87
2022/09/29 14:09:16;;;;;;;0.10;0.10;;;;;;;;;;5023856;28;20429;-86
2022/09/29 14:11:52;;;;;;;0.10;0.10;;;;;;;;;;5051612;28;20431;-87
2022/09/29 14:14:20;;;;;;;0.10;0.10;;;;;;;;;;5040433;28;20441;-88
2022/09/29 14:16:46;;;;;;;0.10;0.10;;;;;;;;;;5068794;28;20450;-87
2022/09/29 14:19:15;;;;;;;0.10;0.10;;;;;;;;;;5038694;28;21016;-88
2022/09/29 14:21:46;;;;;;;0.80;0.50;;;;;;;;;;5068317;28;20437;-89
2022/09/29 14:24:31;;;;;;;0.10;0.10;;;;;;;;;;5063963;28;20446;-88
2022/09/29 14:27:17;;;;;;;0.10;0.10;;;;;;;;;;5066731;28;20439;-88
2022/09/29 14:30:03;;;;;;;0.10;0.10;;;;;;;;;;5064416;28;20504;-88
2022/09/29 14:32:39;;;;;;;0.10;0.10;;;;;;;;;;5009118;28;20517;-88
2022/09/29 14:35:12;;;;;;;0.10;0.10;;;;;;;;;;5060143;28;20434;-89
2022/09/29 14:37:39;;;;;;;0.10;0.10;;;;;;;;;;5042695;28;20433;-89
2022/09/29 14:43:11;;;;;;;0.10;0.10;;;;;;;;;;5046361;28;20425;-84
2022/09/29 14:54:28;;;;;;;0.10;0.10;;;;;;;;;;5027507;28;20441;-85
2022/09/29 14:57:00;;;;;;;0.10;0.10;;;;;;;;;;5017418;28;21379;-82
2022/09/29 14:59:34;;;;;;;0.10;0.10;;;;;;;;;;5043846;28;20561;-85
2022/09/29 15:02:16;;;;;;;0.10;0.10;;;;;;;;;;5057895;28;20439;-87
2022/09/29 15:04:42;;;;;;;0.10;0.10;;;;;;;;;;5032764;28;20433;-90
2022/09/29 15:07:13;;;;;;;0.10;0.10;;;;;;;;;;5038132;28;20425;-83
2022/09/29 15:09:44;;;;;;;0.10;0.10;;;;;;;;;;5062080;28;21004;-89
2022/09/29 15:12:14;;;;;;;0.10;0.10;;;;;;;;;;5020711;28;20442;-89
2022/09/29 15:14:40;;;;;;;0.10;0.10;;;;;;;;;;5065548;28;20425;-89
2022/09/29 15:17:28;;;;;;;0.10;0.10;;;;;;;;;;5037307;28;20490;-88